sensor_id;sensor_type;location;lat;lon;timestamp;pressure;altitude;pressure_sealevel;temperature;humidity
61128;BME280;47013;42.664;23.242;2023-04-06T00:00:56;93773.88;;;0.22;73.92
61128;BME280;47013;42.664;23.242;2023-04-06T00:03:21;93778.88;;;0.24;73.42
61128;BME280;47013;42.664;23.242;2023-04-06T00:05:46;93770.22;;;0.27;74.54
61128;BME280;47013;42.664;23.242;2023-04-06T00:08:12;93767.97;;;0.29;73.80
61128;BME280;47013;42.664;23.242;2023-04-06T00:10:37;93766.41;;;0.28;74.54
61128;BME280;47013;42.664;23.242;2023-04-06T00:13:05;93759.84;;;0.25;73.74
61128;BME280;47013;42.664;23.242;2023-04-06T00:15:30;93753.50;;;0.30;73.66
61128;BME280;47013;42.664;23.242;2023-04-06T00:17:55;93756.59;;;0.32;73.06
61128;BME280;47013;42.664;23.242;2023-04-06T00:20:21;93746.97;;;0.27;73.76
61128;BME280;47013;42.664;23.242;2023-04-06T00:22:46;93751.19;;;0.28;73.93
61128;BME280;47013;42.664;23.242;2023-04-06T00:25:12;93748.59;;;0.32;73.89
61128;BME280;47013;42.664;23.242;2023-04-06T00:27:37;93742.41;;;0.28;73.19
61128;BME280;47013;42.664;23.242;2023-04-06T00:30:03;93739.56;;;0.21;73.80
61128;BME280;47013;42.664;23.242;2023-04-06T00:32:29;93738.88;;;-0.08;74.30
61128;BME280;47013;42.664;23.242;2023-04-06T00:34:55;93733.09;;;-0.25;76.15
61128;BME280;47013;42.664;23.242;2023-04-06T00:37:20;93731.22;;;-0.53;77.83
61128;BME280;47013;42.664;23.242;2023-04-06T00:39:46;93733.03;;;-0.57;77.34
61128;BME280;47013;42.664;23.242;2023-04-06T00:42:11;93736.28;;;-0.64;77.83
61128;BME280;47013;42.664;23.242;2023-04-06T00:44:42;93737.53;;;-0.45;77.86
61128;BME280;47013;42.664;23.242;2023-04-06T00:47:08;93730.41;;;-0.41;78.00
61128;BME280;47013;42.664;23.242;2023-04-06T00:49:33;93735.66;;;-0.29;76.49
61128;BME280;47013;42.664;23.242;2023-04-06T00:51:59;93728.38;;;-0.16;76.96
61128;BME280;47013;42.664;23.242;2023-04-06T00:54:24;93733.97;;;-0.06;76.34
61128;BME280;47013;42.664;23.242;2023-04-06T00:56:49;93729.59;;;0.02;76.07
61128;BME280;47013;42.664;23.242;2023-04-06T00:59:15;93737.41;;;0.11;75.57
61128;BME280;47013;42.664;23.242;2023-04-06T01:01:40;93725.38;;;0.17;75.75
61128;BME280;47013;42.664;23.242;2023-04-06T01:04:05;93731.22;;;0.07;75.66
61128;BME280;47013;42.664;23.242;2023-04-06T01:06:31;93723.22;;;0.07;74.98
61128;BME280;47013;42.664;23.242;2023-04-06T01:08:56;93721.19;;;0.16;75.50
61128;BME280;47013;42.664;23.242;2023-04-06T01:11:21;93724.44;;;0.25;75.35
61128;BME280;47013;42.664;23.242;2023-04-06T01:13:47;93720.97;;;0.24;74.58
61128;BME280;47013;42.664;23.242;2023-04-06T01:16:12;93711.78;;;0.22;75.14
61128;BME280;47013;42.664;23.242;2023-04-06T01:18:38;93722.22;;;0.27;74.53
61128;BME280;47013;42.664;23.242;2023-04-06T01:21:03;93716.63;;;0.16;74.66
61128;BME280;47013;42.664;23.242;2023-04-06T01:23:29;93715.31;;;0.26;74.81
61128;BME280;47013;42.664;23.242;2023-04-06T01:25:54;93707.50;;;0.17;74.90
61128;BME280;47013;42.664;23.242;2023-04-06T01:28:19;93710.31;;;0.24;75.33
61128;BME280;47013;42.664;23.242;2023-04-06T01:30:45;93708.88;;;0.27;75.50
61128;BME280;47013;42.664;23.242;2023-04-06T01:33:11;93703.69;;;0.34;75.23
61128;BME280;47013;42.664;23.242;2023-04-06T01:35:36;93712.47;;;0.35;73.94
61128;BME280;47013;42.664;23.242;2023-04-06T01:38:02;93707.66;;;0.40;73.87
61128;BME280;47013;42.664;23.242;2023-04-06T01:40:27;93709.69;;;0.47;74.39
61128;BME280;47013;42.664;23.242;2023-04-06T01:42:52;93706.34;;;0.50;73.38
61128;BME280;47013;42.664;23.242;2023-04-06T01:45:18;93707.56;;;0.52;73.65
61128;BME280;47013;42.664;23.242;2023-04-06T01:47:43;93696.78;;;0.49;73.73
61128;BME280;47013;42.664;23.242;2023-04-06T01:50:08;93702.66;;;0.54;73.77
61128;BME280;47013;42.664;23.242;2023-04-06T01:52:33;93696.66;;;0.42;74.15
61128;BME280;47013;42.664;23.242;2023-04-06T01:54:59;93697.06;;;0.44;74.53
61128;BME280;47013;42.664;23.242;2023-04-06T01:57:26;93697.97;;;0.51;74.25
61128;BME280;47013;42.664;23.242;2023-04-06T01:59:52;93688.69;;;0.61;74.27
61128;BME280;47013;42.664;23.242;2023-04-06T02:02:17;93691.34;;;0.61;72.97
61128;BME280;47013;42.664;23.242;2023-04-06T02:04:42;93686.88;;;0.49;74.15
61128;BME280;47013;42.664;23.242;2023-04-06T02:07:08;93688.22;;;0.40;73.64
61128;BME280;47013;42.664;23.242;2023-04-06T02:09:33;93686.94;;;0.34;73.57
61128;BME280;47013;42.664;23.242;2023-04-06T02:11:58;93689.16;;;0.32;74.97
61128;BME280;47013;42.664;23.242;2023-04-06T02:14:25;93684.09;;;0.26;74.86
61128;BME280;47013;42.664;23.242;2023-04-06T02:16:50;93688.47;;;0.35;75.22
61128;BME280;47013;42.664;23.242;2023-04-06T02:19:16;93687.16;;;0.44;74.36
61128;BME280;47013;42.664;23.242;2023-04-06T02:21:41;93686.47;;;0.47;73.81
61128;BME280;47013;42.664;23.242;2023-04-06T02:24:07;93689.50;;;0.46;74.02
61128;BME280;47013;42.664;23.242;2023-04-06T02:26:32;93685.78;;;0.50;74.05
61128;BME280;47013;42.664;23.242;2023-04-06T02:28:57;93683.03;;;0.47;74.09
61128;BME280;47013;42.664;23.242;2023-04-06T02:31:23;93682.53;;;0.41;74.50
61128;BME280;47013;42.664;23.242;2023-04-06T02:33:48;93684.31;;;0.37;74.73
61128;BME280;47013;42.664;23.242;2023-04-06T02:36:13;93689.50;;;0.46;74.64
61128;BME280;47013;42.664;23.242;2023-04-06T02:38:38;93685.28;;;0.45;74.22
61128;BME280;47013;42.664;23.242;2023-04-06T02:41:04;93684.22;;;0.49;73.94
61128;BME280;47013;42.664;23.242;2023-04-06T02:43:29;93689.31;;;0.54;73.65
61128;BME280;47013;42.664;23.242;2023-04-06T02:45:55;93689.97;;;0.51;73.66
61128;BME280;47013;42.664;23.242;2023-04-06T02:48:20;93687.06;;;0.56;73.64
61128;BME280;47013;42.664;23.242;2023-04-06T02:50:45;93689.56;;;0.49;74.52
61128;BME280;47013;42.664;23.242;2023-04-06T02:53:11;93688.66;;;0.42;74.49
61128;BME280;47013;42.664;23.242;2023-04-06T02:55:36;93691.09;;;0.50;74.53
61128;BME280;47013;42.664;23.242;2023-04-06T02:58:01;93686.28;;;0.56;74.01
61128;BME280;47013;42.664;23.242;2023-04-06T03:00:26;93689.38;;;0.58;74.00
61128;BME280;47013;42.664;23.242;2023-04-06T03:02:52;93686.34;;;0.59;74.91
61128;BME280;47013;42.664;23.242;2023-04-06T03:05:17;93683.34;;;0.61;74.10
61128;BME280;47013;42.664;23.242;2023-04-06T03:07:42;93685.31;;;0.64;73.83
61128;BME280;47013;42.664;23.242;2023-04-06T03:10:07;93689.81;;;0.60;74.28
61128;BME280;47013;42.664;23.242;2023-04-06T03:12:34;93689.66;;;0.53;74.71
61128;BME280;47013;42.664;23.242;2023-04-06T03:14:59;93688.53;;;0.38;75.54
61128;BME280;47013;42.664;23.242;2023-04-06T03:17:25;93686.41;;;0.44;75.08
61128;BME280;47013;42.664;23.242;2023-04-06T03:19:50;93678.78;;;0.26;75.32
61128;BME280;47013;42.664;23.242;2023-04-06T03:22:16;93681.00;;;0.09;75.84
61128;BME280;47013;42.664;23.242;2023-04-06T03:24:41;93685.84;;;0.03;75.95
61128;BME280;47013;42.664;23.242;2023-04-06T03:27:06;93688.16;;;0.05;76.54
61128;BME280;47013;42.664;23.242;2023-04-06T03:29:31;93680.91;;;0.21;76.47
61128;BME280;47013;42.664;23.242;2023-04-06T03:31:57;93683.31;;;0.26;75.93
61128;BME280;47013;42.664;23.242;2023-04-06T03:34:22;93679.53;;;0.11;75.98
61128;BME280;47013;42.664;23.242;2023-04-06T03:36:47;93677.13;;;0.22;75.94
61128;BME280;47013;42.664;23.242;2023-04-06T03:39:12;93674.31;;;0.15;76.49
61128;BME280;47013;42.664;23.242;2023-04-06T03:41:38;93679.38;;;0.04;76.74
61128;BME280;47013;42.664;23.242;2023-04-06T03:44:03;93676.75;;;-0.12;77.90
61128;BME280;47013;42.664;23.242;2023-04-06T03:46:28;93683.34;;;-0.06;77.91
61128;BME280;47013;42.664;23.242;2023-04-06T03:48:54;93677.16;;;0.06;77.58
61128;BME280;47013;42.664;23.242;2023-04-06T03:51:19;93683.94;;;0.04;77.29
61128;BME280;47013;42.664;23.242;2023-04-06T03:53:44;93673.88;;;0.13;77.13
61128;BME280;47013;42.664;23.242;2023-04-06T03:56:10;93669.66;;;0.12;76.73
61128;BME280;47013;42.664;23.242;2023-04-06T03:58:35;93673.72;;;0.06;77.21
61128;BME280;47013;42.664;23.242;2023-04-06T04:01:00;93680.09;;;0.01;77.09
61128;BME280;47013;42.664;23.242;2023-04-06T04:03:26;93677.31;;;0.13;77.06
61128;BME280;47013;42.664;23.242;2023-04-06T04:05:52;93678.41;;;0.12;76.36
61128;BME280;47013;42.664;23.242;2023-04-06T04:08:18;93676.13;;;-0.05;77.29
61128;BME280;47013;42.664;23.242;2023-04-06T04:10:43;93677.50;;;0.05;77.32
61128;BME280;47013;42.664;23.242;2023-04-06T04:13:09;93673.28;;;0.19;76.29
61128;BME280;47013;42.664;23.242;2023-04-06T04:15:34;93669.91;;;0.22;76.61
61128;BME280;47013;42.664;23.242;2023-04-06T04:18:00;93680.41;;;0.15;76.40
61128;BME280;47013;42.664;23.242;2023-04-06T04:20:25;93681.88;;;0.13;76.69
61128;BME280;47013;42.664;23.242;2023-04-06T04:22:51;93680.16;;;0.05;76.81
61128;BME280;47013;42.664;23.242;2023-04-06T04:25:16;93675.75;;;0.12;77.07
61128;BME280;47013;42.664;23.242;2023-04-06T04:27:41;93671.31;;;0.16;76.42
61128;BME280;47013;42.664;23.242;2023-04-06T04:30:06;93681.59;;;0.34;75.90
61128;BME280;47013;42.664;23.242;2023-04-06T04:32:32;93676.84;;;0.43;75.55
61128;BME280;47013;42.664;23.242;2023-04-06T04:34:57;93682.88;;;0.40;75.41
61128;BME280;47013;42.664;23.242;2023-04-06T04:37:22;93678.41;;;0.44;74.60
61128;BME280;47013;42.664;23.242;2023-04-06T04:39:48;93684.66;;;0.51;74.40
61128;BME280;47013;42.664;23.242;2023-04-06T04:42:13;93682.69;;;0.48;74.51
61128;BME280;47013;42.664;23.242;2023-04-06T04:44:38;93685.22;;;0.61;74.81
61128;BME280;47013;42.664;23.242;2023-04-06T04:47:04;93686.00;;;0.61;74.27
61128;BME280;47013;42.664;23.242;2023-04-06T04:49:29;93676.88;;;0.27;75.24
61128;BME280;47013;42.664;23.242;2023-04-06T04:51:54;93675.56;;;0.37;75.60
61128;BME280;47013;42.664;23.242;2023-04-06T04:54:20;93673.13;;;0.47;75.53
61128;BME280;47013;42.664;23.242;2023-04-06T04:56:45;93679.09;;;0.41;76.24
61128;BME280;47013;42.664;23.242;2023-04-06T04:59:10;93677.09;;;0.53;75.24
61128;BME280;47013;42.664;23.242;2023-04-06T05:01:36;93675.19;;;0.54;75.54
61128;BME280;47013;42.664;23.242;2023-04-06T05:04:01;93674.56;;;0.61;74.65
61128;BME280;47013;42.664;23.242;2023-04-06T05:06:26;93666.78;;;0.71;74.68
61128;BME280;47013;42.664;23.242;2023-04-06T05:08:51;93668.41;;;0.76;75.05
61128;BME280;47013;42.664;23.242;2023-04-06T05:11:17;93666.25;;;0.81;74.13
61128;BME280;47013;42.664;23.242;2023-04-06T05:13:42;93665.47;;;0.81;73.78
61128;BME280;47013;42.664;23.242;2023-04-06T05:16:07;93661.81;;;0.70;73.83
61128;BME280;47013;42.664;23.242;2023-04-06T05:18:33;93665.06;;;0.79;74.10
61128;BME280;47013;42.664;23.242;2023-04-06T05:20:58;93664.47;;;0.89;73.80
61128;BME280;47013;42.664;23.242;2023-04-06T05:23:24;93662.38;;;0.98;73.82
61128;BME280;47013;42.664;23.242;2023-04-06T05:25:49;93659.78;;;1.02;73.21
61128;BME280;47013;42.664;23.242;2023-04-06T05:28:15;93665.22;;;1.05;72.91
61128;BME280;47013;42.664;23.242;2023-04-06T05:30:41;93662.59;;;1.09;72.49
61128;BME280;47013;42.664;23.242;2023-04-06T05:33:07;93658.88;;;1.13;72.81
61128;BME280;47013;42.664;23.242;2023-04-06T05:35:32;93657.91;;;1.22;73.38
61128;BME280;47013;42.664;23.242;2023-04-06T05:37:57;93660.97;;;1.24;72.98
61128;BME280;47013;42.664;23.242;2023-04-06T05:40:22;93668.16;;;1.20;72.57
61128;BME280;47013;42.664;23.242;2023-04-06T05:42:48;93664.47;;;1.28;72.59
61128;BME280;47013;42.664;23.242;2023-04-06T05:45:14;93664.22;;;1.33;72.56
61128;BME280;47013;42.664;23.242;2023-04-06T05:47:42;93660.47;;;1.37;72.04
61128;BME280;47013;42.664;23.242;2023-04-06T05:50:07;93654.41;;;1.40;72.40
61128;BME280;47013;42.664;23.242;2023-04-06T05:52:33;93663.63;;;1.43;72.73
61128;BME280;47013;42.664;23.242;2023-04-06T05:54:58;93656.94;;;1.53;72.36
61128;BME280;47013;42.664;23.242;2023-04-06T05:57:23;93649.69;;;1.53;71.48
61128;BME280;47013;42.664;23.242;2023-04-06T05:59:48;93657.34;;;1.55;72.28
61128;BME280;47013;42.664;23.242;2023-04-06T06:02:14;93650.94;;;1.59;71.65
61128;BME280;47013;42.664;23.242;2023-04-06T06:04:39;93655.16;;;1.60;72.13
61128;BME280;47013;42.664;23.242;2023-04-06T06:07:05;93653.97;;;1.58;72.04
61128;BME280;47013;42.664;23.242;2023-04-06T06:09:30;93654.41;;;1.60;72.46
61128;BME280;47013;42.664;23.242;2023-04-06T06:11:55;93656.00;;;1.64;71.89
61128;BME280;47013;42.664;23.242;2023-04-06T06:14:21;93648.38;;;1.66;72.29
61128;BME280;47013;42.664;23.242;2023-04-06T06:16:47;93651.72;;;1.60;71.97
61128;BME280;47013;42.664;23.242;2023-04-06T06:19:12;93656.47;;;1.70;72.40
61128;BME280;47013;42.664;23.242;2023-04-06T06:21:37;93657.38;;;1.77;77.42
61128;BME280;47013;42.664;23.242;2023-04-06T06:24:02;93651.06;;;2.65;100.00
61128;BME280;47013;42.664;23.242;2023-04-06T06:26:28;93655.91;;;2.56;73.29
61128;BME280;47013;42.664;23.242;2023-04-06T06:28:53;93648.13;;;2.47;70.48
61128;BME280;47013;42.664;23.242;2023-04-06T06:31:18;93650.59;;;2.33;69.17
61128;BME280;47013;42.664;23.242;2023-04-06T06:33:45;93651.56;;;2.21;70.19
61128;BME280;47013;42.664;23.242;2023-04-06T06:36:11;93646.16;;;2.18;70.46
61128;BME280;47013;42.664;23.242;2023-04-06T06:38:36;93650.28;;;2.12;70.94
61128;BME280;47013;42.664;23.242;2023-04-06T06:41:01;93651.16;;;2.19;71.10
61128;BME280;47013;42.664;23.242;2023-04-06T06:43:26;93652.25;;;2.15;70.50
61128;BME280;47013;42.664;23.242;2023-04-06T06:45:52;93660.31;;;2.18;70.53
61128;BME280;47013;42.664;23.242;2023-04-06T06:48:17;93653.28;;;2.33;81.95
61128;BME280;47013;42.664;23.242;2023-04-06T06:50:42;93669.03;;;2.38;71.83
61128;BME280;47013;42.664;23.242;2023-04-06T06:53:08;93672.88;;;2.41;70.15
61128;BME280;47013;42.664;23.242;2023-04-06T06:55:33;93668.25;;;2.38;70.53
61128;BME280;47013;42.664;23.242;2023-04-06T06:57:58;93664.41;;;2.35;70.75
61128;BME280;47013;42.664;23.242;2023-04-06T07:00:23;93662.31;;;2.48;70.47
61128;BME280;47013;42.664;23.242;2023-04-06T07:02:49;93667.38;;;2.56;69.07
61128;BME280;47013;42.664;23.242;2023-04-06T07:05:15;93659.19;;;2.72;68.80
61128;BME280;47013;42.664;23.242;2023-04-06T07:07:41;93663.13;;;2.82;67.70
61128;BME280;47013;42.664;23.242;2023-04-06T07:10:07;93665.06;;;2.81;68.79
61128;BME280;47013;42.664;23.242;2023-04-06T07:12:33;93651.03;;;2.91;68.84
61128;BME280;47013;42.664;23.242;2023-04-06T07:14:58;93653.31;;;2.89;67.45
61128;BME280;47013;42.664;23.242;2023-04-06T07:17:23;93656.44;;;2.95;67.87
61128;BME280;47013;42.664;23.242;2023-04-06T07:19:49;93663.19;;;2.85;67.21
61128;BME280;47013;42.664;23.242;2023-04-06T07:22:14;93660.78;;;2.77;66.64
61128;BME280;47013;42.664;23.242;2023-04-06T07:24:40;93662.63;;;2.73;67.45
61128;BME280;47013;42.664;23.242;2023-04-06T07:27:05;93671.03;;;2.71;67.16
61128;BME280;47013;42.664;23.242;2023-04-06T07:29:31;93655.31;;;2.70;68.06
61128;BME280;47013;42.664;23.242;2023-04-06T07:31:56;93660.78;;;2.77;68.95
61128;BME280;47013;42.664;23.242;2023-04-06T07:34:21;93665.47;;;2.83;67.07
61128;BME280;47013;42.664;23.242;2023-04-06T07:36:47;93650.94;;;2.84;66.44
61128;BME280;47013;42.664;23.242;2023-04-06T07:39:12;93659.84;;;2.92;67.28
61128;BME280;47013;42.664;23.242;2023-04-06T07:41:37;93663.69;;;2.94;66.98
61128;BME280;47013;42.664;23.242;2023-04-06T07:44:03;93661.13;;;3.02;67.33
61128;BME280;47013;42.664;23.242;2023-04-06T07:46:28;93656.53;;;3.02;65.00
61128;BME280;47013;42.664;23.242;2023-04-06T07:48:54;93651.44;;;2.93;67.20
61128;BME280;47013;42.664;23.242;2023-04-06T07:51:19;93659.81;;;2.88;66.22
61128;BME280;47013;42.664;23.242;2023-04-06T07:53:44;93660.25;;;2.94;67.52
61128;BME280;47013;42.664;23.242;2023-04-06T07:56:10;93665.34;;;3.03;67.64
61128;BME280;47013;42.664;23.242;2023-04-06T07:58:37;93653.66;;;3.18;67.06
61128;BME280;47013;42.664;23.242;2023-04-06T08:01:02;93654.06;;;3.20;66.68
61128;BME280;47013;42.664;23.242;2023-04-06T08:03:27;93655.88;;;3.12;66.03
61128;BME280;47013;42.664;23.242;2023-04-06T08:05:53;93661.72;;;3.21;65.59
61128;BME280;47013;42.664;23.242;2023-04-06T08:08:18;93663.56;;;3.14;66.52
61128;BME280;47013;42.664;23.242;2023-04-06T08:10:44;93660.56;;;3.19;65.29
61128;BME280;47013;42.664;23.242;2023-04-06T08:13:09;93665.41;;;3.10;65.22
61128;BME280;47013;42.664;23.242;2023-04-06T08:15:35;93658.38;;;2.98;67.19
61128;BME280;47013;42.664;23.242;2023-04-06T08:18:00;93652.31;;;3.01;66.59
61128;BME280;47013;42.664;23.242;2023-04-06T08:20:25;93660.28;;;2.97;68.15
61128;BME280;47013;42.664;23.242;2023-04-06T08:22:51;93665.03;;;3.11;65.80
61128;BME280;47013;42.664;23.242;2023-04-06T08:25:16;93660.94;;;3.21;66.47
61128;BME280;47013;42.664;23.242;2023-04-06T08:27:41;93666.81;;;3.30;66.25
61128;BME280;47013;42.664;23.242;2023-04-06T08:30:07;93663.47;;;3.40;63.43
61128;BME280;47013;42.664;23.242;2023-04-06T08:32:32;93666.63;;;3.49;64.22
61128;BME280;47013;42.664;23.242;2023-04-06T08:34:57;93668.25;;;3.58;65.03
61128;BME280;47013;42.664;23.242;2023-04-06T08:37:22;93669.81;;;3.62;62.21
61128;BME280;47013;42.664;23.242;2023-04-06T08:39:48;93669.41;;;3.57;63.22
61128;BME280;47013;42.664;23.242;2023-04-06T08:42:16;93664.72;;;3.50;63.62
61128;BME280;47013;42.664;23.242;2023-04-06T08:44:44;93669.00;;;3.54;63.45
61128;BME280;47013;42.664;23.242;2023-04-06T08:47:10;93665.19;;;3.55;62.53
61128;BME280;47013;42.664;23.242;2023-04-06T08:49:37;93668.66;;;3.60;62.63
61128;BME280;47013;42.664;23.242;2023-04-06T08:52:02;93664.09;;;3.64;63.09
61128;BME280;47013;42.664;23.242;2023-04-06T08:54:28;93669.44;;;3.60;64.33
61128;BME280;47013;42.664;23.242;2023-04-06T08:56:53;93663.44;;;3.74;63.81
61128;BME280;47013;42.664;23.242;2023-04-06T08:59:19;93663.81;;;3.72;63.21
61128;BME280;47013;42.664;23.242;2023-04-06T09:01:44;93664.88;;;3.64;62.36
61128;BME280;47013;42.664;23.242;2023-04-06T09:04:10;93654.13;;;3.64;64.12
61128;BME280;47013;42.664;23.242;2023-04-06T09:06:36;93664.94;;;3.71;62.97
61128;BME280;47013;42.664;23.242;2023-04-06T09:09:02;93657.75;;;3.79;69.55
61128;BME280;47013;42.664;23.242;2023-04-06T09:11:28;93655.03;;;3.75;62.56
61128;BME280;47013;42.664;23.242;2023-04-06T09:13:54;93654.25;;;3.75;63.32
61128;BME280;47013;42.664;23.242;2023-04-06T09:16:20;93657.69;;;3.75;61.63
61128;BME280;47013;42.664;23.242;2023-04-06T09:18:45;93655.41;;;3.74;61.58
61128;BME280;47013;42.664;23.242;2023-04-06T09:21:11;93652.41;;;3.79;61.53
61128;BME280;47013;42.664;23.242;2023-04-06T09:23:37;93645.94;;;3.87;60.81
61128;BME280;47013;42.664;23.242;2023-04-06T09:28:48;93648.34;;;3.99;61.78
61128;BME280;47013;42.664;23.242;2023-04-06T09:31:17;93653.06;;;4.13;61.96
61128;BME280;47013;42.664;23.242;2023-04-06T09:33:49;93636.31;;;4.27;61.17
61128;BME280;47013;42.664;23.242;2023-04-06T09:36:14;93651.69;;;4.33;60.30
61128;BME280;47013;42.664;23.242;2023-04-06T09:38:55;93652.09;;;4.35;57.74
61128;BME280;47013;42.664;23.242;2023-04-06T09:41:28;93642.84;;;4.29;58.22
61128;BME280;47013;42.664;23.242;2023-04-06T09:44:12;93634.78;;;4.29;58.89
61128;BME280;47013;42.664;23.242;2023-04-06T09:49:04;93644.44;;;4.37;59.28
61128;BME280;47013;42.664;23.242;2023-04-06T09:51:30;93641.34;;;4.35;58.20
61128;BME280;47013;42.664;23.242;2023-04-06T09:53:56;93647.81;;;4.27;57.22
61128;BME280;47013;42.664;23.242;2023-04-06T09:56:26;93641.47;;;4.53;58.89
61128;BME280;47013;42.664;23.242;2023-04-06T09:58:53;93640.94;;;4.92;58.59
61128;BME280;47013;42.664;23.242;2023-04-06T10:01:20;93643.66;;;5.02;57.88
61128;BME280;47013;42.664;23.242;2023-04-06T10:06:26;93640.75;;;5.47;56.07
61128;BME280;47013;42.664;23.242;2023-04-06T10:08:52;93628.56;;;5.85;54.81
61128;BME280;47013;42.664;23.242;2023-04-06T10:11:19;93647.06;;;6.08;51.85
61128;BME280;47013;42.664;23.242;2023-04-06T10:13:45;93641.69;;;6.36;52.13
61128;BME280;47013;42.664;23.242;2023-04-06T10:16:12;93631.69;;;6.55;52.67
61128;BME280;47013;42.664;23.242;2023-04-06T10:18:38;93635.88;;;6.91;52.59
61128;BME280;47013;42.664;23.242;2023-04-06T10:24:00;93623.13;;;6.99;48.25
61128;BME280;47013;42.664;23.242;2023-04-06T10:26:26;93623.56;;;6.76;49.07
61128;BME280;47013;42.664;23.242;2023-04-06T10:28:51;93622.41;;;6.73;50.33
61128;BME280;47013;42.664;23.242;2023-04-06T10:31:26;93623.97;;;6.78;49.12
61128;BME280;47013;42.664;23.242;2023-04-06T10:33:59;93616.28;;;6.66;49.55
61128;BME280;47013;42.664;23.242;2023-04-06T10:36:25;93610.53;;;6.42;50.44
61128;BME280;47013;42.664;23.242;2023-04-06T10:38:58;93609.78;;;6.38;50.01
61128;BME280;47013;42.664;23.242;2023-04-06T10:41:23;93607.47;;;6.19;52.51
61128;BME280;47013;42.664;23.242;2023-04-06T10:43:57;93616.69;;;6.21;52.24
61128;BME280;47013;42.664;23.242;2023-04-06T10:46:25;93603.63;;;6.20;53.09
61128;BME280;47013;42.664;23.242;2023-04-06T10:48:51;93602.88;;;6.27;53.12
61128;BME280;47013;42.664;23.242;2023-04-06T10:51:17;93615.16;;;6.35;50.25
61128;BME280;47013;42.664;23.242;2023-04-06T10:53:44;93615.94;;;6.28;49.82
61128;BME280;47013;42.664;23.242;2023-04-06T10:56:11;93606.72;;;6.29;51.68
61128;BME280;47013;42.664;23.242;2023-04-06T10:58:49;93595.91;;;6.43;51.18
61128;BME280;47013;42.664;23.242;2023-04-06T11:01:15;93600.16;;;6.30;51.80
61128;BME280;47013;42.664;23.242;2023-04-06T11:03:52;93596.69;;;6.30;52.78
61128;BME280;47013;42.664;23.242;2023-04-06T11:06:21;93593.25;;;6.26;51.68
61128;BME280;47013;42.664;23.242;2023-04-06T11:08:46;93600.19;;;6.16;52.30
61128;BME280;47013;42.664;23.242;2023-04-06T11:11:13;93589.41;;;6.19;52.04
61128;BME280;47013;42.664;23.242;2023-04-06T11:13:49;93592.47;;;6.11;51.91
61128;BME280;47013;42.664;23.242;2023-04-06T11:16:19;93588.63;;;6.05;52.89
61128;BME280;47013;42.664;23.242;2023-04-06T11:21:30;93584.78;;;6.27;53.36
61128;BME280;47013;42.664;23.242;2023-04-06T11:26:30;93582.47;;;6.29;52.38
61128;BME280;47013;42.664;23.242;2023-04-06T11:28:56;93576.72;;;6.27;53.34
61128;BME280;47013;42.664;23.242;2023-04-06T11:31:27;93577.06;;;6.33;52.13
61128;BME280;47013;42.664;23.242;2023-04-06T11:33:56;93576.72;;;6.20;52.35
61128;BME280;47013;42.664;23.242;2023-04-06T11:36:21;93569.00;;;6.08;52.74
61128;BME280;47013;42.664;23.242;2023-04-06T11:38:46;93582.09;;;5.99;52.74
61128;BME280;47013;42.664;23.242;2023-04-06T11:41:12;93577.47;;;5.88;52.30
61128;BME280;47013;42.664;23.242;2023-04-06T11:43:37;93577.81;;;5.83;52.02
61128;BME280;47013;42.664;23.242;2023-04-06T11:46:03;93574.00;;;5.74;52.11
61128;BME280;47013;42.664;23.242;2023-04-06T11:48:28;93575.13;;;5.69;51.45
61128;BME280;47013;42.664;23.242;2023-04-06T11:50:57;93566.66;;;5.71;52.91
61128;BME280;47013;42.664;23.242;2023-04-06T11:53:23;93568.97;;;5.65;52.78
61128;BME280;47013;42.664;23.242;2023-04-06T11:55:49;93564.72;;;5.46;52.57
61128;BME280;47013;42.664;23.242;2023-04-06T11:58:14;93560.47;;;5.45;53.48
61128;BME280;47013;42.664;23.242;2023-04-06T12:00:40;93563.94;;;5.42;52.42
61128;BME280;47013;42.664;23.242;2023-04-06T12:03:12;93563.94;;;5.46;52.95
61128;BME280;47013;42.664;23.242;2023-04-06T12:05:38;93560.09;;;5.40;53.86
61128;BME280;47013;42.664;23.242;2023-04-06T12:08:03;93570.09;;;5.36;54.55
61128;BME280;47013;42.664;23.242;2023-04-06T12:10:29;93555.88;;;5.35;54.97
61128;BME280;47013;42.664;23.242;2023-04-06T12:12:54;93557.03;;;5.38;54.86
61128;BME280;47013;42.664;23.242;2023-04-06T12:15:20;93557.78;;;5.35;53.43
61128;BME280;47013;42.664;23.242;2023-04-06T12:17:48;93564.28;;;5.33;53.63
61128;BME280;47013;42.664;23.242;2023-04-06T12:20:14;93561.59;;;5.26;53.37
61128;BME280;47013;42.664;23.242;2023-04-06T12:22:40;93554.28;;;5.20;52.88
61128;BME280;47013;42.664;23.242;2023-04-06T12:25:05;93553.94;;;5.25;53.39
61128;BME280;47013;42.664;23.242;2023-04-06T12:27:31;93561.97;;;5.18;53.22
61128;BME280;47013;42.664;23.242;2023-04-06T12:29:57;93557.78;;;5.24;52.98
61128;BME280;47013;42.664;23.242;2023-04-06T12:32:22;93562.00;;;5.25;53.40
61128;BME280;47013;42.664;23.242;2023-04-06T12:34:47;93563.16;;;5.31;53.52
61128;BME280;47013;42.664;23.242;2023-04-06T12:37:13;93564.28;;;5.33;52.78
61128;BME280;47013;42.664;23.242;2023-04-06T12:39:38;93560.06;;;5.29;52.69
61128;BME280;47013;42.664;23.242;2023-04-06T12:42:03;93555.84;;;5.24;53.22
61128;BME280;47013;42.664;23.242;2023-04-06T12:44:29;93547.41;;;5.26;53.12
61128;BME280;47013;42.664;23.242;2023-04-06T12:46:55;93550.47;;;5.28;53.33
61128;BME280;47013;42.664;23.242;2023-04-06T12:49:20;93553.16;;;5.24;53.61
61128;BME280;47013;42.664;23.242;2023-04-06T12:51:47;93548.16;;;5.26;53.07
61128;BME280;47013;42.664;23.242;2023-04-06T12:54:12;93550.09;;;5.26;53.80
61128;BME280;47013;42.664;23.242;2023-04-06T12:56:38;93547.78;;;5.24;52.81
61128;BME280;47013;42.664;23.242;2023-04-06T12:59:03;93542.78;;;5.26;52.38
61128;BME280;47013;42.664;23.242;2023-04-06T13:01:28;93550.06;;;5.19;52.94
61128;BME280;47013;42.664;23.242;2023-04-06T13:03:54;93540.47;;;5.18;52.59
61128;BME280;47013;42.664;23.242;2023-04-06T13:06:19;93543.13;;;5.07;52.17
61128;BME280;47013;42.664;23.242;2023-04-06T13:08:45;93538.50;;;5.08;51.01